Terminal Aerodrome Forecast
Issued by NWS

Home | Current Version | Previous Version | Text Only | Print | Product List | Glossary On
Versions: 1 2 3 4 5 6 7 8 9 10 11 12 13 14
000
FTUS45 KGJT 221732
TAFTEX
TAF
KTEX 221732Z 2218/2318 25011G18KT P6SM SKC
     FM222200 21020G30KT P6SM VCSH BKN100
     FM230100 21021G35KT P6SM VCSH SCT100 WS020/23040KT
     FM230300 23023G35KT P6SM VCSH BKN100 WS020/22045KT
     FM230600 20014G25KT P6SM -SHSN BKN050
     FM231200 24017G33KT 5SM -SHSN BR BKN040=

USA.gov is the U.S. government's official web portal to all federal, state and local government web resources and services.